ESMT

Halmstad Airport

Halmstad, Sweden
TAF ESMT 151058Z 1512/1521 15005KT 9000 BKN040 TEMPO 1515/1521 4000 BR BKN008
Issued Valid From Valid To
Nov-15 @ 10:58 UTC
(2 hours ago)
Nov-15 @ 12:00 UTC
(an hour ago)
Nov-15 @ 21:00 UTC
(in 8 hours)
Nov-15 @ 12:00 to Nov-15 @ 21:00
TAF ESMT 151058Z 1512/1521 15005KT 9000 BKN040
Wind Visibility Clouds
150° at 5 knots 8,996 meters
  • Broken at 4,000' AGL
Temporary Nov-15 @ 15:00 to Nov-15 @ 21:00
TEMPO 1515/1521 4000 BR BKN008
Visibility Clouds Conditions
4,007 meters
  • Broken at 800' AGL
  • Mist
TAF ESMT 151058Z 1512/1521 15005KT 9000 BKN040 TEMPO 1515/1521 4000 BR BKN008
Issued Nov-15 @ 10:58 UTC
(2 hours ago)
Valid From Nov-15 @ 12:00 UTC
(an hour ago)
Valid To Nov-15 @ 21:00 UTC
(in 8 hours)
Nov-15 @ 12:00 - Nov-15 @ 21:00
Wind Visibility
150° at 5 knots 8,996 meters
Clouds
  • Broken at 4,000' AGL
Temporary Nov-15 @ 15:00 - Nov-15 @ 21:00
Clouds
  • Broken at 800' AGL
Conditions
  • Mist